sensor_id;sensor_type;location;lat;lon;timestamp;P1;durP1;ratioP1;P2;durP2;ratioP2
9276;SDS011;4676;42.678;23.244;2023-03-31T00:00:51;8.07;;;5.83;;
9276;SDS011;4676;42.678;23.244;2023-03-31T00:03:21;9.60;;;4.13;;
9276;SDS011;4676;42.678;23.244;2023-03-31T00:05:49;7.97;;;5.57;;
9276;SDS011;4676;42.678;23.244;2023-03-31T00:08:20;10.73;;;4.73;;
9276;SDS011;4676;42.678;23.244;2023-03-31T00:10:47;11.40;;;5.83;;
9276;SDS011;4676;42.678;23.244;2023-03-31T00:13:15;8.03;;;4.90;;
9276;SDS011;4676;42.678;23.244;2023-03-31T00:15:42;5.70;;;4.83;;
9276;SDS011;4676;42.678;23.244;2023-03-31T00:18:10;5.33;;;4.83;;
9276;SDS011;4676;42.678;23.244;2023-03-31T00:20:36;5.77;;;4.93;;
9276;SDS011;4676;42.678;23.244;2023-03-31T00:23:03;6.10;;;5.40;;
9276;SDS011;4676;42.678;23.244;2023-03-31T00:25:30;5.57;;;4.13;;
9276;SDS011;4676;42.678;23.244;2023-03-31T00:27:57;11.70;;;5.03;;
9276;SDS011;4676;42.678;23.244;2023-03-31T00:30:25;6.83;;;5.07;;
9276;SDS011;4676;42.678;23.244;2023-03-31T00:32:52;5.93;;;4.60;;
9276;SDS011;4676;42.678;23.244;2023-03-31T00:35:19;4.43;;;3.83;;
9276;SDS011;4676;42.678;23.244;2023-03-31T00:37:46;4.97;;;4.57;;
9276;SDS011;4676;42.678;23.244;2023-03-31T00:40:13;5.97;;;4.80;;
9276;SDS011;4676;42.678;23.244;2023-03-31T00:42:40;5.97;;;4.90;;
9276;SDS011;4676;42.678;23.244;2023-03-31T00:45:20;5.60;;;5.10;;
9276;SDS011;4676;42.678;23.244;2023-03-31T00:47:54;5.43;;;4.93;;
9276;SDS011;4676;42.678;23.244;2023-03-31T00:50:28;7.53;;;5.00;;
9276;SDS011;4676;42.678;23.244;2023-03-31T00:52:58;5.33;;;4.80;;
9276;SDS011;4676;42.678;23.244;2023-03-31T00:55:29;5.93;;;5.20;;
9276;SDS011;4676;42.678;23.244;2023-03-31T00:57:59;8.70;;;5.57;;
9276;SDS011;4676;42.678;23.244;2023-03-31T01:00:30;5.60;;;4.90;;
9276;SDS011;4676;42.678;23.244;2023-03-31T01:02:57;11.37;;;5.17;;
9276;SDS011;4676;42.678;23.244;2023-03-31T01:05:28;12.57;;;6.57;;
9276;SDS011;4676;42.678;23.244;2023-03-31T01:08:00;12.40;;;6.30;;
9276;SDS011;4676;42.678;23.244;2023-03-31T01:10:27;12.63;;;5.77;;
9276;SDS011;4676;42.678;23.244;2023-03-31T01:13:02;11.17;;;6.20;;
9276;SDS011;4676;42.678;23.244;2023-03-31T01:15:31;13.93;;;6.43;;
9276;SDS011;4676;42.678;23.244;2023-03-31T01:17:57;13.60;;;6.47;;
9276;SDS011;4676;42.678;23.244;2023-03-31T01:20:26;6.53;;;5.67;;
9276;SDS011;4676;42.678;23.244;2023-03-31T01:29:18;10.53;;;5.77;;
9276;SDS011;4676;42.678;23.244;2023-03-31T01:32:09;6.80;;;5.70;;
9276;SDS011;4676;42.678;23.244;2023-03-31T01:41:26;9.20;;;6.57;;
9276;SDS011;4676;42.678;23.244;2023-03-31T01:44:05;10.50;;;5.90;;
9276;SDS011;4676;42.678;23.244;2023-03-31T01:46:42;7.00;;;6.00;;
9276;SDS011;4676;42.678;23.244;2023-03-31T01:49:19;8.60;;;5.70;;
9276;SDS011;4676;42.678;23.244;2023-03-31T01:51:52;9.33;;;5.33;;
9276;SDS011;4676;42.678;23.244;2023-03-31T01:54:26;9.17;;;5.97;;
9276;SDS011;4676;42.678;23.244;2023-03-31T01:57:04;7.17;;;5.20;;
9276;SDS011;4676;42.678;23.244;2023-03-31T01:59:38;5.87;;;5.07;;
9276;SDS011;4676;42.678;23.244;2023-03-31T02:02:12;9.17;;;5.77;;
9276;SDS011;4676;42.678;23.244;2023-03-31T02:04:44;11.00;;;6.23;;
9276;SDS011;4676;42.678;23.244;2023-03-31T02:07:15;11.63;;;6.63;;
9276;SDS011;4676;42.678;23.244;2023-03-31T02:09:46;9.60;;;4.97;;
9276;SDS011;4676;42.678;23.244;2023-03-31T02:12:17;2.70;;;2.50;;
9276;SDS011;4676;42.678;23.244;2023-03-31T02:14:47;1.30;;;1.20;;
9276;SDS011;4676;42.678;23.244;2023-03-31T02:17:19;1.10;;;1.10;;
9276;SDS011;4676;42.678;23.244;2023-03-31T02:19:55;1.30;;;1.20;;
9276;SDS011;4676;42.678;23.244;2023-03-31T02:22:23;1.13;;;1.00;;
9276;SDS011;4676;42.678;23.244;2023-03-31T02:24:52;1.20;;;1.10;;
9276;SDS011;4676;42.678;23.244;2023-03-31T02:27:22;2.00;;;1.17;;
9276;SDS011;4676;42.678;23.244;2023-03-31T02:29:51;1.83;;;1.37;;
9276;SDS011;4676;42.678;23.244;2023-03-31T02:32:20;1.63;;;1.40;;
9276;SDS011;4676;42.678;23.244;2023-03-31T02:34:49;1.63;;;1.43;;
9276;SDS011;4676;42.678;23.244;2023-03-31T02:37:16;1.63;;;1.40;;
9276;SDS011;4676;42.678;23.244;2023-03-31T02:39:43;2.30;;;1.50;;
9276;SDS011;4676;42.678;23.244;2023-03-31T02:42:12;1.57;;;1.47;;
9276;SDS011;4676;42.678;23.244;2023-03-31T02:44:41;1.43;;;1.40;;
9276;SDS011;4676;42.678;23.244;2023-03-31T02:47:09;2.07;;;1.33;;
9276;SDS011;4676;42.678;23.244;2023-03-31T02:49:38;2.17;;;1.70;;
9276;SDS011;4676;42.678;23.244;2023-03-31T02:52:23;6.07;;;1.90;;
9276;SDS011;4676;42.678;23.244;2023-03-31T02:55:10;4.97;;;1.80;;
9276;SDS011;4676;42.678;23.244;2023-03-31T02:57:58;2.03;;;1.40;;
9276;SDS011;4676;42.678;23.244;2023-03-31T03:00:59;2.97;;;1.67;;
9276;SDS011;4676;42.678;23.244;2023-03-31T03:03:37;2.33;;;1.40;;
9276;SDS011;4676;42.678;23.244;2023-03-31T03:06:15;1.60;;;1.50;;
9276;SDS011;4676;42.678;23.244;2023-03-31T03:08:53;1.73;;;1.63;;
9276;SDS011;4676;42.678;23.244;2023-03-31T03:11:31;2.93;;;1.63;;
9276;SDS011;4676;42.678;23.244;2023-03-31T03:14:06;2.80;;;1.30;;
9276;SDS011;4676;42.678;23.244;2023-03-31T03:16:44;1.60;;;1.50;;
9276;SDS011;4676;42.678;23.244;2023-03-31T03:19:17;1.33;;;1.27;;
9276;SDS011;4676;42.678;23.244;2023-03-31T03:21:46;1.50;;;1.40;;
9276;SDS011;4676;42.678;23.244;2023-03-31T03:24:13;1.63;;;1.50;;
9276;SDS011;4676;42.678;23.244;2023-03-31T03:26:41;1.90;;;1.47;;
9276;SDS011;4676;42.678;23.244;2023-03-31T03:29:08;21.47;;;9.27;;
9276;SDS011;4676;42.678;23.244;2023-03-31T03:31:37;6.13;;;3.47;;
9276;SDS011;4676;42.678;23.244;2023-03-31T03:34:05;1.67;;;1.57;;
9276;SDS011;4676;42.678;23.244;2023-03-31T03:36:33;1.50;;;1.40;;
9276;SDS011;4676;42.678;23.244;2023-03-31T03:39:00;3.33;;;1.77;;
9276;SDS011;4676;42.678;23.244;2023-03-31T03:41:28;3.83;;;1.30;;
9276;SDS011;4676;42.678;23.244;2023-03-31T03:43:55;2.03;;;1.93;;
9276;SDS011;4676;42.678;23.244;2023-03-31T03:46:21;2.63;;;1.80;;
9276;SDS011;4676;42.678;23.244;2023-03-31T03:48:48;2.37;;;2.17;;
9276;SDS011;4676;42.678;23.244;2023-03-31T03:51:16;8.43;;;3.67;;
9276;SDS011;4676;42.678;23.244;2023-03-31T03:53:43;10.13;;;9.23;;
9276;SDS011;4676;42.678;23.244;2023-03-31T03:56:10;4.57;;;4.17;;
9276;SDS011;4676;42.678;23.244;2023-03-31T03:58:36;3.17;;;2.60;;
9276;SDS011;4676;42.678;23.244;2023-03-31T04:01:03;2.63;;;2.23;;
9276;SDS011;4676;42.678;23.244;2023-03-31T04:03:30;4.10;;;2.83;;
9276;SDS011;4676;42.678;23.244;2023-03-31T04:05:56;4.23;;;2.60;;
9276;SDS011;4676;42.678;23.244;2023-03-31T04:08:24;1.70;;;1.60;;
9276;SDS011;4676;42.678;23.244;2023-03-31T04:10:51;1.97;;;1.83;;
9276;SDS011;4676;42.678;23.244;2023-03-31T04:13:18;11.10;;;9.03;;
9276;SDS011;4676;42.678;23.244;2023-03-31T04:15:45;15.50;;;10.17;;
9276;SDS011;4676;42.678;23.244;2023-03-31T04:18:12;3.07;;;2.83;;
9276;SDS011;4676;42.678;23.244;2023-03-31T04:20:43;2.30;;;2.10;;
9276;SDS011;4676;42.678;23.244;2023-03-31T04:23:09;2.00;;;1.90;;
9276;SDS011;4676;42.678;23.244;2023-03-31T04:25:40;6.20;;;2.40;;
9276;SDS011;4676;42.678;23.244;2023-03-31T04:28:10;2.30;;;1.90;;
9276;SDS011;4676;42.678;23.244;2023-03-31T04:30:38;3.87;;;1.93;;
9276;SDS011;4676;42.678;23.244;2023-03-31T04:33:05;3.13;;;2.00;;
9276;SDS011;4676;42.678;23.244;2023-03-31T04:35:32;3.37;;;2.00;;
9276;SDS011;4676;42.678;23.244;2023-03-31T04:38:13;1.30;;;1.30;;
9276;SDS011;4676;42.678;23.244;2023-03-31T04:40:44;1.50;;;1.40;;
9276;SDS011;4676;42.678;23.244;2023-03-31T04:43:11;1.63;;;1.53;;
9276;SDS011;4676;42.678;23.244;2023-03-31T04:45:39;2.17;;;1.37;;
9276;SDS011;4676;42.678;23.244;2023-03-31T04:48:05;1.90;;;1.80;;
9276;SDS011;4676;42.678;23.244;2023-03-31T04:50:32;1.70;;;1.60;;
9276;SDS011;4676;42.678;23.244;2023-03-31T04:53:00;2.73;;;1.10;;
9276;SDS011;4676;42.678;23.244;2023-03-31T04:55:27;3.13;;;1.47;;
9276;SDS011;4676;42.678;23.244;2023-03-31T04:57:55;1.33;;;1.30;;
9276;SDS011;4676;42.678;23.244;2023-03-31T05:00:22;3.23;;;2.03;;
9276;SDS011;4676;42.678;23.244;2023-03-31T05:02:49;2.20;;;2.00;;
9276;SDS011;4676;42.678;23.244;2023-03-31T05:05:16;2.77;;;2.20;;
9276;SDS011;4676;42.678;23.244;2023-03-31T05:07:43;1.83;;;1.73;;
9276;SDS011;4676;42.678;23.244;2023-03-31T05:10:10;1.33;;;1.33;;
9276;SDS011;4676;42.678;23.244;2023-03-31T05:12:37;2.60;;;1.23;;
9276;SDS011;4676;42.678;23.244;2023-03-31T05:15:06;4.30;;;1.37;;
9276;SDS011;4676;42.678;23.244;2023-03-31T05:17:33;1.97;;;1.30;;
9276;SDS011;4676;42.678;23.244;2023-03-31T05:20:02;1.57;;;1.30;;
9276;SDS011;4676;42.678;23.244;2023-03-31T05:22:32;1.50;;;1.40;;
9276;SDS011;4676;42.678;23.244;2023-03-31T05:25:00;2.10;;;2.00;;
9276;SDS011;4676;42.678;23.244;2023-03-31T05:27:27;2.83;;;1.60;;
9276;SDS011;4676;42.678;23.244;2023-03-31T05:29:53;3.57;;;2.23;;
9276;SDS011;4676;42.678;23.244;2023-03-31T05:32:21;8.10;;;5.97;;
9276;SDS011;4676;42.678;23.244;2023-03-31T05:34:48;3.80;;;2.57;;
9276;SDS011;4676;42.678;23.244;2023-03-31T05:37:16;4.50;;;4.20;;
9276;SDS011;4676;42.678;23.244;2023-03-31T05:39:43;2.83;;;2.00;;
9276;SDS011;4676;42.678;23.244;2023-03-31T05:42:10;9.50;;;6.17;;
9276;SDS011;4676;42.678;23.244;2023-03-31T05:44:37;7.83;;;5.03;;
9276;SDS011;4676;42.678;23.244;2023-03-31T05:47:03;2.07;;;1.53;;
9276;SDS011;4676;42.678;23.244;2023-03-31T05:49:31;1.03;;;1.03;;
9276;SDS011;4676;42.678;23.244;2023-03-31T05:51:58;1.83;;;1.70;;
9276;SDS011;4676;42.678;23.244;2023-03-31T05:54:25;6.20;;;1.47;;
9276;SDS011;4676;42.678;23.244;2023-03-31T05:56:52;9.33;;;1.90;;
9276;SDS011;4676;42.678;23.244;2023-03-31T05:59:19;1.20;;;1.20;;
9276;SDS011;4676;42.678;23.244;2023-03-31T06:01:46;1.40;;;1.30;;
9276;SDS011;4676;42.678;23.244;2023-03-31T06:04:13;2.00;;;1.43;;
9276;SDS011;4676;42.678;23.244;2023-03-31T06:06:41;1.53;;;1.43;;
9276;SDS011;4676;42.678;23.244;2023-03-31T06:09:08;1.60;;;1.50;;
9276;SDS011;4676;42.678;23.244;2023-03-31T06:11:36;3.03;;;1.70;;
9276;SDS011;4676;42.678;23.244;2023-03-31T06:14:03;2.93;;;2.40;;
9276;SDS011;4676;42.678;23.244;2023-03-31T06:16:30;2.03;;;1.83;;
9276;SDS011;4676;42.678;23.244;2023-03-31T06:18:57;6.20;;;2.47;;
9276;SDS011;4676;42.678;23.244;2023-03-31T06:21:23;5.27;;;1.53;;
9276;SDS011;4676;42.678;23.244;2023-03-31T06:23:51;3.33;;;1.33;;
9276;SDS011;4676;42.678;23.244;2023-03-31T06:26:20;2.23;;;1.50;;
9276;SDS011;4676;42.678;23.244;2023-03-31T06:28:47;1.53;;;1.43;;
9276;SDS011;4676;42.678;23.244;2023-03-31T06:31:16;3.47;;;2.00;;
9276;SDS011;4676;42.678;23.244;2023-03-31T06:33:44;3.63;;;1.80;;
9276;SDS011;4676;42.678;23.244;2023-03-31T06:36:12;4.30;;;2.97;;
9276;SDS011;4676;42.678;23.244;2023-03-31T06:38:41;6.20;;;2.77;;
9276;SDS011;4676;42.678;23.244;2023-03-31T06:41:10;2.43;;;1.80;;
9276;SDS011;4676;42.678;23.244;2023-03-31T06:43:38;1.80;;;1.70;;
9276;SDS011;4676;42.678;23.244;2023-03-31T06:46:05;1.70;;;1.60;;
9276;SDS011;4676;42.678;23.244;2023-03-31T06:48:33;2.47;;;1.57;;
9276;SDS011;4676;42.678;23.244;2023-03-31T06:51:00;5.20;;;1.60;;
9276;SDS011;4676;42.678;23.244;2023-03-31T06:53:29;1.77;;;1.57;;
9276;SDS011;4676;42.678;23.244;2023-03-31T06:55:56;2.80;;;1.80;;
9276;SDS011;4676;42.678;23.244;2023-03-31T06:58:24;3.40;;;1.67;;
9276;SDS011;4676;42.678;23.244;2023-03-31T07:00:51;1.83;;;1.43;;
9276;SDS011;4676;42.678;23.244;2023-03-31T07:03:18;2.97;;;1.90;;
9276;SDS011;4676;42.678;23.244;2023-03-31T07:05:47;3.43;;;1.70;;
9276;SDS011;4676;42.678;23.244;2023-03-31T07:08:15;1.77;;;1.67;;
9276;SDS011;4676;42.678;23.244;2023-03-31T07:10:43;2.03;;;1.90;;
9276;SDS011;4676;42.678;23.244;2023-03-31T07:13:11;2.97;;;1.73;;
9276;SDS011;4676;42.678;23.244;2023-03-31T07:15:39;2.77;;;2.53;;
9276;SDS011;4676;42.678;23.244;2023-03-31T07:18:06;2.10;;;2.00;;
9276;SDS011;4676;42.678;23.244;2023-03-31T07:20:33;7.20;;;3.53;;
9276;SDS011;4676;42.678;23.244;2023-03-31T07:23:02;15.77;;;5.60;;
9276;SDS011;4676;42.678;23.244;2023-03-31T07:25:30;2.03;;;1.93;;
9276;SDS011;4676;42.678;23.244;2023-03-31T07:28:12;3.93;;;2.30;;
9276;SDS011;4676;42.678;23.244;2023-03-31T07:30:40;5.97;;;3.37;;
9276;SDS011;4676;42.678;23.244;2023-03-31T07:33:07;3.53;;;2.10;;
9276;SDS011;4676;42.678;23.244;2023-03-31T07:35:36;3.20;;;2.63;;
9276;SDS011;4676;42.678;23.244;2023-03-31T07:38:03;7.40;;;2.33;;
9276;SDS011;4676;42.678;23.244;2023-03-31T07:40:30;6.07;;;2.60;;
9276;SDS011;4676;42.678;23.244;2023-03-31T07:42:57;12.40;;;5.60;;
9276;SDS011;4676;42.678;23.244;2023-03-31T07:45:24;7.47;;;3.70;;
9276;SDS011;4676;42.678;23.244;2023-03-31T07:47:53;7.43;;;4.07;;
9276;SDS011;4676;42.678;23.244;2023-03-31T07:50:20;3.17;;;2.87;;
9276;SDS011;4676;42.678;23.244;2023-03-31T07:52:47;10.60;;;5.03;;
9276;SDS011;4676;42.678;23.244;2023-03-31T07:55:16;8.80;;;4.70;;
9276;SDS011;4676;42.678;23.244;2023-03-31T07:57:44;4.93;;;4.10;;
9276;SDS011;4676;42.678;23.244;2023-03-31T08:00:12;9.17;;;3.67;;
9276;SDS011;4676;42.678;23.244;2023-03-31T08:02:40;4.27;;;3.90;;
9276;SDS011;4676;42.678;23.244;2023-03-31T08:05:10;3.83;;;2.43;;
9276;SDS011;4676;42.678;23.244;2023-03-31T08:07:38;4.60;;;2.93;;
9276;SDS011;4676;42.678;23.244;2023-03-31T08:10:07;2.70;;;2.50;;
9276;SDS011;4676;42.678;23.244;2023-03-31T08:12:37;4.87;;;2.80;;
9276;SDS011;4676;42.678;23.244;2023-03-31T08:15:04;4.57;;;2.30;;
9276;SDS011;4676;42.678;23.244;2023-03-31T08:17:32;6.40;;;3.00;;
9276;SDS011;4676;42.678;23.244;2023-03-31T08:19:59;5.77;;;2.53;;
9276;SDS011;4676;42.678;23.244;2023-03-31T08:22:27;3.67;;;1.97;;
9276;SDS011;4676;42.678;23.244;2023-03-31T08:24:53;3.27;;;3.00;;
9276;SDS011;4676;42.678;23.244;2023-03-31T08:27:20;3.77;;;2.70;;
9276;SDS011;4676;42.678;23.244;2023-03-31T08:29:47;3.03;;;1.90;;
9276;SDS011;4676;42.678;23.244;2023-03-31T08:32:14;11.83;;;2.80;;
9276;SDS011;4676;42.678;23.244;2023-03-31T08:34:40;2.10;;;2.00;;
9276;SDS011;4676;42.678;23.244;2023-03-31T08:37:07;3.10;;;1.90;;
9276;SDS011;4676;42.678;23.244;2023-03-31T08:39:36;6.83;;;2.50;;
9276;SDS011;4676;42.678;23.244;2023-03-31T08:42:04;2.10;;;2.00;;
9276;SDS011;4676;42.678;23.244;2023-03-31T08:44:35;2.70;;;1.73;;
9276;SDS011;4676;42.678;23.244;2023-03-31T08:47:09;7.53;;;2.40;;
9276;SDS011;4676;42.678;23.244;2023-03-31T08:49:42;7.43;;;2.87;;
9276;SDS011;4676;42.678;23.244;2023-03-31T08:52:13;6.20;;;1.93;;
9276;SDS011;4676;42.678;23.244;2023-03-31T08:54:45;4.40;;;1.90;;
9276;SDS011;4676;42.678;23.244;2023-03-31T08:57:15;2.10;;;1.90;;
9276;SDS011;4676;42.678;23.244;2023-03-31T08:59:45;5.47;;;1.90;;
9276;SDS011;4676;42.678;23.244;2023-03-31T09:02:14;5.93;;;2.10;;
9276;SDS011;4676;42.678;23.244;2023-03-31T09:04:49;2.03;;;1.93;;
9276;SDS011;4676;42.678;23.244;2023-03-31T09:07:34;7.17;;;3.87;;
9276;SDS011;4676;42.678;23.244;2023-03-31T09:10:15;4.20;;;2.60;;
9276;SDS011;4676;42.678;23.244;2023-03-31T09:12:54;3.93;;;2.17;;
9276;SDS011;4676;42.678;23.244;2023-03-31T09:15:27;3.87;;;2.00;;
9276;SDS011;4676;42.678;23.244;2023-03-31T09:17:59;3.07;;;1.67;;
9276;SDS011;4676;42.678;23.244;2023-03-31T09:20:40;4.33;;;2.20;;
9276;SDS011;4676;42.678;23.244;2023-03-31T09:23:13;6.33;;;2.30;;
9276;SDS011;4676;42.678;23.244;2023-03-31T09:25:51;3.80;;;2.40;;
9276;SDS011;4676;42.678;23.244;2023-03-31T09:28:20;6.00;;;2.40;;
9276;SDS011;4676;42.678;23.244;2023-03-31T09:30:51;5.63;;;2.50;;
9276;SDS011;4676;42.678;23.244;2023-03-31T09:33:23;5.97;;;4.10;;
9276;SDS011;4676;42.678;23.244;2023-03-31T09:35:56;7.83;;;5.03;;
9276;SDS011;4676;42.678;23.244;2023-03-31T09:38:22;4.23;;;2.43;;
9276;SDS011;4676;42.678;23.244;2023-03-31T09:40:54;2.80;;;2.50;;
9276;SDS011;4676;42.678;23.244;2023-03-31T09:43:22;3.97;;;2.07;;
9276;SDS011;4676;42.678;23.244;2023-03-31T09:45:51;5.30;;;2.53;;
9276;SDS011;4676;42.678;23.244;2023-03-31T09:48:19;7.07;;;4.60;;
9276;SDS011;4676;42.678;23.244;2023-03-31T09:50:49;4.43;;;2.67;;
9276;SDS011;4676;42.678;23.244;2023-03-31T09:53:22;3.87;;;2.20;;
9276;SDS011;4676;42.678;23.244;2023-03-31T09:56:00;5.97;;;2.13;;
9276;SDS011;4676;42.678;23.244;2023-03-31T09:58:30;6.27;;;3.93;;
9276;SDS011;4676;42.678;23.244;2023-03-31T10:01:00;2.20;;;2.00;;
9276;SDS011;4676;42.678;23.244;2023-03-31T10:03:30;6.87;;;2.80;;
9276;SDS011;4676;42.678;23.244;2023-03-31T10:06:01;2.87;;;2.67;;
9276;SDS011;4676;42.678;23.244;2023-03-31T10:08:36;5.07;;;1.80;;
9276;SDS011;4676;42.678;23.244;2023-03-31T10:11:09;4.13;;;2.27;;
9276;SDS011;4676;42.678;23.244;2023-03-31T10:13:40;5.90;;;2.30;;
9276;SDS011;4676;42.678;23.244;2023-03-31T10:16:12;3.27;;;1.83;;
9276;SDS011;4676;42.678;23.244;2023-03-31T10:18:40;3.30;;;2.00;;
9276;SDS011;4676;42.678;23.244;2023-03-31T10:21:14;3.87;;;2.20;;
9276;SDS011;4676;42.678;23.244;2023-03-31T10:23:46;2.37;;;2.17;;
9276;SDS011;4676;42.678;23.244;2023-03-31T10:26:16;5.93;;;2.70;;
9276;SDS011;4676;42.678;23.244;2023-03-31T10:28:45;1.50;;;1.40;;
9276;SDS011;4676;42.678;23.244;2023-03-31T10:31:14;5.33;;;1.80;;
9276;SDS011;4676;42.678;23.244;2023-03-31T10:33:43;4.57;;;2.20;;
9276;SDS011;4676;42.678;23.244;2023-03-31T10:36:14;5.43;;;2.80;;
9276;SDS011;4676;42.678;23.244;2023-03-31T10:38:46;2.93;;;2.40;;
9276;SDS011;4676;42.678;23.244;2023-03-31T10:41:18;4.57;;;4.07;;
9276;SDS011;4676;42.678;23.244;2023-03-31T10:43:47;2.57;;;1.50;;
9276;SDS011;4676;42.678;23.244;2023-03-31T10:46:16;2.67;;;2.13;;
9276;SDS011;4676;42.678;23.244;2023-03-31T10:48:43;3.90;;;2.23;;
9276;SDS011;4676;42.678;23.244;2023-03-31T10:51:11;1.80;;;1.70;;
9276;SDS011;4676;42.678;23.244;2023-03-31T10:53:42;3.90;;;1.90;;
9276;SDS011;4676;42.678;23.244;2023-03-31T10:59:17;2.23;;;1.90;;
9276;SDS011;4676;42.678;23.244;2023-03-31T11:01:59;3.67;;;2.70;;
9276;SDS011;4676;42.678;23.244;2023-03-31T11:07:38;2.53;;;2.33;;
9276;SDS011;4676;42.678;23.244;2023-03-31T11:10:22;2.60;;;2.47;;
9276;SDS011;4676;42.678;23.244;2023-03-31T11:13:12;4.97;;;2.30;;
9276;SDS011;4676;42.678;23.244;2023-03-31T11:15:48;3.50;;;1.77;;
9276;SDS011;4676;42.678;23.244;2023-03-31T11:21:20;5.90;;;2.30;;
9276;SDS011;4676;42.678;23.244;2023-03-31T11:23:57;3.03;;;2.00;;
9276;SDS011;4676;42.678;23.244;2023-03-31T11:26:33;1.80;;;1.70;;
9276;SDS011;4676;42.678;23.244;2023-03-31T11:29:13;3.00;;;1.83;;
9276;SDS011;4676;42.678;23.244;2023-03-31T11:31:49;1.87;;;1.70;;
9276;SDS011;4676;42.678;23.244;2023-03-31T11:37:16;5.67;;;1.70;;
9276;SDS011;4676;42.678;23.244;2023-03-31T11:39:58;2.93;;;1.83;;
9276;SDS011;4676;42.678;23.244;2023-03-31T11:42:43;2.70;;;1.83;;
9276;SDS011;4676;42.678;23.244;2023-03-31T11:45:17;5.60;;;1.87;;
9276;SDS011;4676;42.678;23.244;2023-03-31T11:47:48;2.23;;;1.97;;
9276;SDS011;4676;42.678;23.244;2023-03-31T11:50:19;2.40;;;1.70;;
9276;SDS011;4676;42.678;23.244;2023-03-31T11:52:50;5.70;;;2.17;;
9276;SDS011;4676;42.678;23.244;2023-03-31T11:55:23;3.83;;;2.57;;
9276;SDS011;4676;42.678;23.244;2023-03-31T11:57:56;3.73;;;2.17;;
9276;SDS011;4676;42.678;23.244;2023-03-31T12:00:29;4.03;;;1.70;;
9276;SDS011;4676;42.678;23.244;2023-03-31T12:02:58;3.57;;;1.67;;
9276;SDS011;4676;42.678;23.244;2023-03-31T12:05:32;2.10;;;1.50;;
9276;SDS011;4676;42.678;23.244;2023-03-31T12:08:04;3.60;;;1.50;;
9276;SDS011;4676;42.678;23.244;2023-03-31T12:10:34;5.53;;;1.67;;
9276;SDS011;4676;42.678;23.244;2023-03-31T12:13:04;3.87;;;2.00;;
9276;SDS011;4676;42.678;23.244;2023-03-31T12:15:56;3.10;;;1.77;;
9276;SDS011;4676;42.678;23.244;2023-03-31T12:18:28;2.93;;;1.60;;
9276;SDS011;4676;42.678;23.244;2023-03-31T12:21:00;1.83;;;1.70;;
9276;SDS011;4676;42.678;23.244;2023-03-31T12:23:32;3.53;;;2.03;;
9276;SDS011;4676;42.678;23.244;2023-03-31T12:26:05;3.00;;;1.33;;
9276;SDS011;4676;42.678;23.244;2023-03-31T12:28:38;2.90;;;1.53;;
9276;SDS011;4676;42.678;23.244;2023-03-31T12:31:10;4.43;;;1.50;;
9276;SDS011;4676;42.678;23.244;2023-03-31T12:33:44;2.50;;;1.97;;
9276;SDS011;4676;42.678;23.244;2023-03-31T12:36:18;1.60;;;1.50;;
9276;SDS011;4676;42.678;23.244;2023-03-31T12:38:56;3.80;;;1.70;;
9276;SDS011;4676;42.678;23.244;2023-03-31T12:41:37;6.70;;;1.97;;
9276;SDS011;4676;42.678;23.244;2023-03-31T12:44:15;2.53;;;2.07;;
9276;SDS011;4676;42.678;23.244;2023-03-31T12:47:03;2.07;;;1.83;;
9276;SDS011;4676;42.678;23.244;2023-03-31T12:49:48;9.83;;;4.57;;
9276;SDS011;4676;42.678;23.244;2023-03-31T12:52:23;2.00;;;1.90;;
9276;SDS011;4676;42.678;23.244;2023-03-31T12:55:09;2.43;;;1.97;;
9276;SDS011;4676;42.678;23.244;2023-03-31T12:57:52;5.13;;;4.03;;
9276;SDS011;4676;42.678;23.244;2023-03-31T13:01:04;1.87;;;1.63;;
9276;SDS011;4676;42.678;23.244;2023-03-31T13:03:39;2.90;;;1.87;;
9276;SDS011;4676;42.678;23.244;2023-03-31T13:06:10;5.63;;;2.00;;
9276;SDS011;4676;42.678;23.244;2023-03-31T13:08:48;6.67;;;2.17;;
9276;SDS011;4676;42.678;23.244;2023-03-31T13:11:19;3.30;;;1.30;;
9276;SDS011;4676;42.678;23.244;2023-03-31T13:13:51;3.77;;;1.70;;
9276;SDS011;4676;42.678;23.244;2023-03-31T13:16:24;3.67;;;2.17;;
9276;SDS011;4676;42.678;23.244;2023-03-31T13:18:53;4.30;;;1.40;;
9276;SDS011;4676;42.678;23.244;2023-03-31T13:21:21;5.63;;;1.70;;
9276;SDS011;4676;42.678;23.244;2023-03-31T13:23:48;2.50;;;1.60;;
9276;SDS011;4676;42.678;23.244;2023-03-31T13:34:56;2.50;;;1.70;;
9276;SDS011;4676;42.678;23.244;2023-03-31T13:43:35;1.90;;;1.70;;
9276;SDS011;4676;42.678;23.244;2023-03-31T13:46:39;4.17;;;1.40;;
9276;SDS011;4676;42.678;23.244;2023-03-31T13:52:23;2.40;;;1.57;;
9276;SDS011;4676;42.678;23.244;2023-03-31T13:55:06;5.63;;;2.10;;
9276;SDS011;4676;42.678;23.244;2023-03-31T13:57:58;5.90;;;1.80;;
9276;SDS011;4676;42.678;23.244;2023-03-31T14:00:46;2.30;;;1.70;;
9276;SDS011;4676;42.678;23.244;2023-03-31T14:06:22;5.43;;;2.03;;
9276;SDS011;4676;42.678;23.244;2023-03-31T14:08:56;1.53;;;1.43;;
9276;SDS011;4676;42.678;23.244;2023-03-31T14:11:29;2.50;;;2.00;;
9276;SDS011;4676;42.678;23.244;2023-03-31T14:14:01;1.60;;;1.50;;
9276;SDS011;4676;42.678;23.244;2023-03-31T14:16:31;3.90;;;2.10;;
9276;SDS011;4676;42.678;23.244;2023-03-31T14:19:06;2.23;;;1.50;;
9276;SDS011;4676;42.678;23.244;2023-03-31T14:21:45;1.47;;;1.37;;
9276;SDS011;4676;42.678;23.244;2023-03-31T14:24:22;2.17;;;2.07;;
9276;SDS011;4676;42.678;23.244;2023-03-31T14:26:57;4.73;;;1.67;;
9276;SDS011;4676;42.678;23.244;2023-03-31T14:29:30;1.93;;;1.60;;
9276;SDS011;4676;42.678;23.244;2023-03-31T14:32:08;1.40;;;1.40;;
9276;SDS011;4676;42.678;23.244;2023-03-31T14:34:48;1.97;;;1.70;;
9276;SDS011;4676;42.678;23.244;2023-03-31T14:37:23;1.77;;;1.67;;
9276;SDS011;4676;42.678;23.244;2023-03-31T14:39:53;1.50;;;1.40;;
9276;SDS011;4676;42.678;23.244;2023-03-31T14:42:22;2.10;;;1.67;;
9276;SDS011;4676;42.678;23.244;2023-03-31T14:44:54;5.80;;;2.13;;
9276;SDS011;4676;42.678;23.244;2023-03-31T14:47:22;3.20;;;1.80;;
9276;SDS011;4676;42.678;23.244;2023-03-31T14:49:57;4.20;;;2.03;;
9276;SDS011;4676;42.678;23.244;2023-03-31T14:52:28;1.67;;;1.53;;
9276;SDS011;4676;42.678;23.244;2023-03-31T14:54:57;1.83;;;1.67;;
9276;SDS011;4676;42.678;23.244;2023-03-31T14:57:26;6.97;;;2.10;;
9276;SDS011;4676;42.678;23.244;2023-03-31T14:59:57;1.53;;;1.43;;
9276;SDS011;4676;42.678;23.244;2023-03-31T15:02:29;3.70;;;1.83;;
9276;SDS011;4676;42.678;23.244;2023-03-31T15:04:58;3.13;;;1.67;;
9276;SDS011;4676;42.678;23.244;2023-03-31T15:07:28;2.90;;;1.93;;
9276;SDS011;4676;42.678;23.244;2023-03-31T15:09:56;2.00;;;1.53;;
9276;SDS011;4676;42.678;23.244;2023-03-31T15:12:23;2.10;;;1.90;;
9276;SDS011;4676;42.678;23.244;2023-03-31T15:14:51;2.13;;;1.50;;
9276;SDS011;4676;42.678;23.244;2023-03-31T15:17:23;4.83;;;2.33;;
9276;SDS011;4676;42.678;23.244;2023-03-31T15:19:52;5.73;;;1.60;;
9276;SDS011;4676;42.678;23.244;2023-03-31T15:22:21;1.87;;;1.40;;
9276;SDS011;4676;42.678;23.244;2023-03-31T15:24:50;2.33;;;2.00;;
9276;SDS011;4676;42.678;23.244;2023-03-31T15:27:19;3.37;;;2.67;;
9276;SDS011;4676;42.678;23.244;2023-03-31T15:29:55;4.07;;;1.63;;
9276;SDS011;4676;42.678;23.244;2023-03-31T15:32:26;5.60;;;2.37;;
9276;SDS011;4676;42.678;23.244;2023-03-31T15:34:55;3.67;;;2.00;;
9276;SDS011;4676;42.678;23.244;2023-03-31T15:37:23;5.43;;;3.30;;
9276;SDS011;4676;42.678;23.244;2023-03-31T15:39:53;2.73;;;2.27;;
9276;SDS011;4676;42.678;23.244;2023-03-31T15:42:24;4.43;;;2.20;;
9276;SDS011;4676;42.678;23.244;2023-03-31T15:44:53;3.43;;;2.50;;
9276;SDS011;4676;42.678;23.244;2023-03-31T15:47:22;3.90;;;2.00;;
9276;SDS011;4676;42.678;23.244;2023-03-31T15:49:53;6.57;;;5.47;;
9276;SDS011;4676;42.678;23.244;2023-03-31T15:52:29;4.30;;;3.77;;
9276;SDS011;4676;42.678;23.244;2023-03-31T15:54:58;3.07;;;2.70;;
9276;SDS011;4676;42.678;23.244;2023-03-31T15:57:33;3.03;;;2.63;;
9276;SDS011;4676;42.678;23.244;2023-03-31T16:00:01;3.53;;;2.03;;
9276;SDS011;4676;42.678;23.244;2023-03-31T16:02:37;5.80;;;4.40;;
9276;SDS011;4676;42.678;23.244;2023-03-31T16:05:05;7.67;;;4.23;;
9276;SDS011;4676;42.678;23.244;2023-03-31T16:07:45;4.10;;;3.70;;
9276;SDS011;4676;42.678;23.244;2023-03-31T16:10:14;6.93;;;3.50;;